sensor_id;sensor_type;location;lat;lon;timestamp;P1;durP1;ratioP1;P2;durP2;ratioP2
13061;SDS011;6597;52.218;9.882;2023-05-14T00:00:20;12.83;;;5.63;;
13061;SDS011;6597;52.218;9.882;2023-05-14T00:02:47;13.47;;;6.13;;
13061;SDS011;6597;52.218;9.882;2023-05-14T00:05:14;15.30;;;6.10;;
13061;SDS011;6597;52.218;9.882;2023-05-14T00:07:40;11.90;;;5.13;;
13061;SDS011;6597;52.218;9.882;2023-05-14T00:10:09;11.07;;;5.63;;
13061;SDS011;6597;52.218;9.882;2023-05-14T00:12:35;11.73;;;5.60;;
13061;SDS011;6597;52.218;9.882;2023-05-14T00:15:02;10.30;;;5.23;;
13061;SDS011;6597;52.218;9.882;2023-05-14T00:17:29;13.93;;;5.80;;
13061;SDS011;6597;52.218;9.882;2023-05-14T00:19:55;10.33;;;5.40;;
13061;SDS011;6597;52.218;9.882;2023-05-14T00:22:23;7.00;;;4.90;;
13061;SDS011;6597;52.218;9.882;2023-05-14T00:24:50;13.73;;;4.97;;
13061;SDS011;6597;52.218;9.882;2023-05-14T00:27:17;11.30;;;5.37;;
13061;SDS011;6597;52.218;9.882;2023-05-14T00:29:44;8.27;;;5.27;;
13061;SDS011;6597;52.218;9.882;2023-05-14T00:32:11;7.93;;;5.00;;
13061;SDS011;6597;52.218;9.882;2023-05-14T00:34:37;8.50;;;4.97;;
13061;SDS011;6597;52.218;9.882;2023-05-14T00:37:04;12.20;;;5.30;;
13061;SDS011;6597;52.218;9.882;2023-05-14T00:39:30;9.13;;;5.70;;
13061;SDS011;6597;52.218;9.882;2023-05-14T00:41:57;10.37;;;5.00;;
13061;SDS011;6597;52.218;9.882;2023-05-14T00:44:25;9.97;;;5.07;;
13061;SDS011;6597;52.218;9.882;2023-05-14T00:46:52;11.77;;;5.80;;
13061;SDS011;6597;52.218;9.882;2023-05-14T00:49:19;9.63;;;5.30;;
13061;SDS011;6597;52.218;9.882;2023-05-14T00:51:46;8.13;;;5.00;;
13061;SDS011;6597;52.218;9.882;2023-05-14T00:54:13;6.93;;;4.90;;
13061;SDS011;6597;52.218;9.882;2023-05-14T00:56:40;8.60;;;5.57;;
13061;SDS011;6597;52.218;9.882;2023-05-14T00:59:07;7.33;;;5.00;;
13061;SDS011;6597;52.218;9.882;2023-05-14T01:01:35;17.33;;;5.40;;
13061;SDS011;6597;52.218;9.882;2023-05-14T01:04:02;9.20;;;4.93;;
13061;SDS011;6597;52.218;9.882;2023-05-14T01:06:31;7.07;;;4.97;;
13061;SDS011;6597;52.218;9.882;2023-05-14T01:09:21;5.43;;;4.60;;
13061;SDS011;6597;52.218;9.882;2023-05-14T01:11:56;7.73;;;5.03;;
13061;SDS011;6597;52.218;9.882;2023-05-14T01:14:31;10.30;;;5.60;;
13061;SDS011;6597;52.218;9.882;2023-05-14T01:17:04;7.77;;;4.87;;
13061;SDS011;6597;52.218;9.882;2023-05-14T01:19:35;8.90;;;5.57;;
13061;SDS011;6597;52.218;9.882;2023-05-14T01:22:05;7.40;;;4.97;;
13061;SDS011;6597;52.218;9.882;2023-05-14T01:24:32;6.57;;;4.70;;
13061;SDS011;6597;52.218;9.882;2023-05-14T01:27:00;7.80;;;5.10;;
13061;SDS011;6597;52.218;9.882;2023-05-14T01:29:42;7.97;;;5.07;;
13061;SDS011;6597;52.218;9.882;2023-05-14T01:32:15;7.87;;;4.87;;
13061;SDS011;6597;52.218;9.882;2023-05-14T01:34:44;6.60;;;4.77;;
13061;SDS011;6597;52.218;9.882;2023-05-14T01:37:15;7.20;;;5.03;;
13061;SDS011;6597;52.218;9.882;2023-05-14T01:39:43;7.67;;;5.00;;
13061;SDS011;6597;52.218;9.882;2023-05-14T01:42:11;9.70;;;4.60;;
13061;SDS011;6597;52.218;9.882;2023-05-14T01:44:38;5.97;;;4.90;;
13061;SDS011;6597;52.218;9.882;2023-05-14T01:47:05;7.80;;;5.33;;
13061;SDS011;6597;52.218;9.882;2023-05-14T01:49:31;6.20;;;4.90;;
13061;SDS011;6597;52.218;9.882;2023-05-14T01:51:58;8.47;;;4.97;;
13061;SDS011;6597;52.218;9.882;2023-05-14T01:54:26;6.40;;;4.77;;
13061;SDS011;6597;52.218;9.882;2023-05-14T01:56:52;7.60;;;4.80;;
13061;SDS011;6597;52.218;9.882;2023-05-14T01:59:19;7.00;;;5.33;;
13061;SDS011;6597;52.218;9.882;2023-05-14T02:01:45;6.50;;;4.77;;
13061;SDS011;6597;52.218;9.882;2023-05-14T02:04:12;6.97;;;4.97;;
13061;SDS011;6597;52.218;9.882;2023-05-14T02:06:40;8.50;;;4.77;;
13061;SDS011;6597;52.218;9.882;2023-05-14T02:09:06;10.03;;;5.43;;
13061;SDS011;6597;52.218;9.882;2023-05-14T02:11:34;6.67;;;5.27;;
13061;SDS011;6597;52.218;9.882;2023-05-14T02:14:01;8.80;;;5.23;;
13061;SDS011;6597;52.218;9.882;2023-05-14T02:16:27;7.47;;;4.87;;
13061;SDS011;6597;52.218;9.882;2023-05-14T02:18:54;8.63;;;5.37;;
13061;SDS011;6597;52.218;9.882;2023-05-14T02:21:20;6.97;;;4.93;;
13061;SDS011;6597;52.218;9.882;2023-05-14T02:23:47;8.10;;;5.37;;
13061;SDS011;6597;52.218;9.882;2023-05-14T02:26:14;9.77;;;5.47;;
13061;SDS011;6597;52.218;9.882;2023-05-14T02:28:42;6.97;;;4.67;;
13061;SDS011;6597;52.218;9.882;2023-05-14T02:31:11;10.13;;;5.20;;
13061;SDS011;6597;52.218;9.882;2023-05-14T02:33:38;8.97;;;5.47;;
13061;SDS011;6597;52.218;9.882;2023-05-14T02:36:05;11.27;;;5.07;;
13061;SDS011;6597;52.218;9.882;2023-05-14T02:38:32;7.37;;;4.97;;
13061;SDS011;6597;52.218;9.882;2023-05-14T02:40:58;7.23;;;4.60;;
13061;SDS011;6597;52.218;9.882;2023-05-14T02:43:25;8.37;;;5.73;;
13061;SDS011;6597;52.218;9.882;2023-05-14T02:45:53;9.37;;;5.30;;
13061;SDS011;6597;52.218;9.882;2023-05-14T02:48:19;9.73;;;5.90;;
13061;SDS011;6597;52.218;9.882;2023-05-14T02:50:46;6.77;;;5.07;;
13061;SDS011;6597;52.218;9.882;2023-05-14T02:53:13;10.90;;;5.73;;
13061;SDS011;6597;52.218;9.882;2023-05-14T02:55:39;8.73;;;6.03;;
13061;SDS011;6597;52.218;9.882;2023-05-14T02:58:06;8.47;;;5.30;;
13061;SDS011;6597;52.218;9.882;2023-05-14T03:00:32;7.87;;;5.37;;
13061;SDS011;6597;52.218;9.882;2023-05-14T03:03:00;6.93;;;5.07;;
13061;SDS011;6597;52.218;9.882;2023-05-14T03:05:27;11.03;;;6.10;;
13061;SDS011;6597;52.218;9.882;2023-05-14T03:07:53;6.17;;;4.77;;
13061;SDS011;6597;52.218;9.882;2023-05-14T03:10:20;7.53;;;5.13;;
13061;SDS011;6597;52.218;9.882;2023-05-14T03:12:46;8.50;;;5.73;;
13061;SDS011;6597;52.218;9.882;2023-05-14T03:15:13;10.60;;;5.73;;
13061;SDS011;6597;52.218;9.882;2023-05-14T03:17:40;9.13;;;5.50;;
13061;SDS011;6597;52.218;9.882;2023-05-14T03:20:08;7.57;;;4.97;;
13061;SDS011;6597;52.218;9.882;2023-05-14T03:22:35;7.33;;;5.10;;
13061;SDS011;6597;52.218;9.882;2023-05-14T03:25:02;8.63;;;6.03;;
13061;SDS011;6597;52.218;9.882;2023-05-14T03:27:29;9.07;;;5.70;;
13061;SDS011;6597;52.218;9.882;2023-05-14T03:29:55;6.80;;;5.10;;
13061;SDS011;6597;52.218;9.882;2023-05-14T03:32:22;6.57;;;4.93;;
13061;SDS011;6597;52.218;9.882;2023-05-14T03:34:48;8.83;;;5.43;;
13061;SDS011;6597;52.218;9.882;2023-05-14T03:37:16;10.13;;;5.33;;
13061;SDS011;6597;52.218;9.882;2023-05-14T03:39:43;9.43;;;5.70;;
13061;SDS011;6597;52.218;9.882;2023-05-14T03:42:09;9.47;;;6.00;;
13061;SDS011;6597;52.218;9.882;2023-05-14T03:44:36;10.47;;;5.67;;
13061;SDS011;6597;52.218;9.882;2023-05-14T03:47:03;9.40;;;5.13;;
13061;SDS011;6597;52.218;9.882;2023-05-14T03:49:29;8.17;;;5.53;;
13061;SDS011;6597;52.218;9.882;2023-05-14T03:51:56;8.00;;;5.20;;
13061;SDS011;6597;52.218;9.882;2023-05-14T03:54:24;7.47;;;5.07;;
13061;SDS011;6597;52.218;9.882;2023-05-14T03:56:51;9.87;;;5.77;;
13061;SDS011;6597;52.218;9.882;2023-05-14T03:59:18;11.40;;;5.10;;
13061;SDS011;6597;52.218;9.882;2023-05-14T04:01:45;6.83;;;5.67;;
13061;SDS011;6597;52.218;9.882;2023-05-14T04:04:11;8.27;;;5.97;;
13061;SDS011;6597;52.218;9.882;2023-05-14T04:06:38;9.50;;;5.23;;
13061;SDS011;6597;52.218;9.882;2023-05-14T04:09:04;7.30;;;5.07;;
13061;SDS011;6597;52.218;9.882;2023-05-14T04:11:32;9.87;;;5.83;;
13061;SDS011;6597;52.218;9.882;2023-05-14T04:13:59;9.63;;;6.30;;
13061;SDS011;6597;52.218;9.882;2023-05-14T04:16:25;10.97;;;6.33;;
13061;SDS011;6597;52.218;9.882;2023-05-14T04:18:52;8.47;;;5.37;;
13061;SDS011;6597;52.218;9.882;2023-05-14T04:21:19;11.53;;;6.13;;
13061;SDS011;6597;52.218;9.882;2023-05-14T04:23:46;7.13;;;5.17;;
13061;SDS011;6597;52.218;9.882;2023-05-14T04:26:12;8.83;;;5.60;;
13061;SDS011;6597;52.218;9.882;2023-05-14T04:28:40;8.23;;;5.17;;
13061;SDS011;6597;52.218;9.882;2023-05-14T04:31:06;9.53;;;5.53;;
13061;SDS011;6597;52.218;9.882;2023-05-14T04:33:33;10.47;;;5.83;;
13061;SDS011;6597;52.218;9.882;2023-05-14T04:36:00;7.33;;;5.53;;
13061;SDS011;6597;52.218;9.882;2023-05-14T04:38:26;7.77;;;5.97;;
13061;SDS011;6597;52.218;9.882;2023-05-14T04:40:53;9.13;;;5.63;;
13061;SDS011;6597;52.218;9.882;2023-05-14T04:43:19;9.30;;;5.77;;
13061;SDS011;6597;52.218;9.882;2023-05-14T04:45:47;7.53;;;5.97;;
13061;SDS011;6597;52.218;9.882;2023-05-14T04:48:13;12.97;;;6.40;;
13061;SDS011;6597;52.218;9.882;2023-05-14T04:50:40;9.17;;;6.23;;
13061;SDS011;6597;52.218;9.882;2023-05-14T04:53:08;9.13;;;6.03;;
13061;SDS011;6597;52.218;9.882;2023-05-14T04:55:35;9.97;;;5.77;;
13061;SDS011;6597;52.218;9.882;2023-05-14T04:58:02;8.17;;;5.73;;
13061;SDS011;6597;52.218;9.882;2023-05-14T05:00:28;11.17;;;5.57;;
13061;SDS011;6597;52.218;9.882;2023-05-14T05:02:56;7.03;;;5.43;;
13061;SDS011;6597;52.218;9.882;2023-05-14T05:05:23;7.60;;;5.43;;
13061;SDS011;6597;52.218;9.882;2023-05-14T05:07:49;10.90;;;6.30;;
13061;SDS011;6597;52.218;9.882;2023-05-14T05:10:16;7.10;;;5.37;;
13061;SDS011;6597;52.218;9.882;2023-05-14T05:12:42;11.17;;;5.87;;
13061;SDS011;6597;52.218;9.882;2023-05-14T05:15:09;7.90;;;6.00;;
13061;SDS011;6597;52.218;9.882;2023-05-14T05:17:36;8.13;;;6.23;;
13061;SDS011;6597;52.218;9.882;2023-05-14T05:20:04;8.90;;;5.77;;
13061;SDS011;6597;52.218;9.882;2023-05-14T05:22:33;10.93;;;6.30;;
13061;SDS011;6597;52.218;9.882;2023-05-14T05:25:00;10.70;;;6.97;;
13061;SDS011;6597;52.218;9.882;2023-05-14T05:27:29;8.53;;;5.30;;
13061;SDS011;6597;52.218;9.882;2023-05-14T05:29:56;8.07;;;5.77;;
13061;SDS011;6597;52.218;9.882;2023-05-14T05:32:22;11.70;;;6.27;;
13061;SDS011;6597;52.218;9.882;2023-05-14T05:34:49;12.97;;;6.77;;
13061;SDS011;6597;52.218;9.882;2023-05-14T05:37:17;11.20;;;5.97;;
13061;SDS011;6597;52.218;9.882;2023-05-14T05:39:44;8.13;;;6.07;;
13061;SDS011;6597;52.218;9.882;2023-05-14T05:42:12;9.40;;;6.00;;
13061;SDS011;6597;52.218;9.882;2023-05-14T05:44:38;9.20;;;6.10;;
13061;SDS011;6597;52.218;9.882;2023-05-14T05:47:05;9.47;;;5.93;;
13061;SDS011;6597;52.218;9.882;2023-05-14T05:49:32;8.23;;;5.43;;
13061;SDS011;6597;52.218;9.882;2023-05-14T05:51:58;10.93;;;6.10;;
13061;SDS011;6597;52.218;9.882;2023-05-14T05:54:26;7.53;;;5.60;;
13061;SDS011;6597;52.218;9.882;2023-05-14T05:56:53;8.40;;;5.80;;
13061;SDS011;6597;52.218;9.882;2023-05-14T05:59:19;10.03;;;5.93;;
13061;SDS011;6597;52.218;9.882;2023-05-14T06:01:46;7.07;;;5.67;;
13061;SDS011;6597;52.218;9.882;2023-05-14T06:04:12;6.90;;;4.93;;
13061;SDS011;6597;52.218;9.882;2023-05-14T06:06:39;9.13;;;5.47;;
13061;SDS011;6597;52.218;9.882;2023-05-14T06:09:05;9.23;;;6.00;;
13061;SDS011;6597;52.218;9.882;2023-05-14T06:11:34;7.83;;;6.00;;
13061;SDS011;6597;52.218;9.882;2023-05-14T06:14:00;8.10;;;5.53;;
13061;SDS011;6597;52.218;9.882;2023-05-14T06:16:27;12.20;;;5.03;;
13061;SDS011;6597;52.218;9.882;2023-05-14T06:18:54;9.23;;;6.17;;
13061;SDS011;6597;52.218;9.882;2023-05-14T06:21:20;9.27;;;6.30;;
13061;SDS011;6597;52.218;9.882;2023-05-14T06:23:47;8.73;;;5.50;;
13061;SDS011;6597;52.218;9.882;2023-05-14T06:26:13;7.97;;;5.73;;
13061;SDS011;6597;52.218;9.882;2023-05-14T06:28:41;8.17;;;6.13;;
13061;SDS011;6597;52.218;9.882;2023-05-14T06:31:08;7.30;;;5.27;;
13061;SDS011;6597;52.218;9.882;2023-05-14T06:33:34;8.13;;;5.20;;
13061;SDS011;6597;52.218;9.882;2023-05-14T06:36:02;8.90;;;5.60;;
13061;SDS011;6597;52.218;9.882;2023-05-14T06:38:30;5.87;;;4.63;;
13061;SDS011;6597;52.218;9.882;2023-05-14T06:40:56;8.27;;;5.60;;
13061;SDS011;6597;52.218;9.882;2023-05-14T06:43:23;9.70;;;5.33;;
13061;SDS011;6597;52.218;9.882;2023-05-14T06:45:51;10.07;;;6.27;;
13061;SDS011;6597;52.218;9.882;2023-05-14T06:48:18;9.93;;;5.47;;
13061;SDS011;6597;52.218;9.882;2023-05-14T06:50:45;8.33;;;5.37;;
13061;SDS011;6597;52.218;9.882;2023-05-14T06:53:12;10.77;;;6.37;;
13061;SDS011;6597;52.218;9.882;2023-05-14T06:55:39;10.07;;;5.60;;
13061;SDS011;6597;52.218;9.882;2023-05-14T06:58:06;8.33;;;5.60;;
13061;SDS011;6597;52.218;9.882;2023-05-14T07:00:33;8.93;;;5.13;;
13061;SDS011;6597;52.218;9.882;2023-05-14T07:03:01;8.13;;;5.25;;
13061;SDS011;6597;52.218;9.882;2023-05-14T07:05:27;7.37;;;4.90;;
13061;SDS011;6597;52.218;9.882;2023-05-14T07:07:54;8.20;;;5.43;;
13061;SDS011;6597;52.218;9.882;2023-05-14T07:10:20;6.43;;;4.80;;
13061;SDS011;6597;52.218;9.882;2023-05-14T07:12:47;10.97;;;5.10;;
13061;SDS011;6597;52.218;9.882;2023-05-14T07:15:14;7.35;;;4.60;;
13061;SDS011;6597;52.218;9.882;2023-05-14T07:17:40;10.82;;;5.07;;
13061;SDS011;6597;52.218;9.882;2023-05-14T07:20:08;6.67;;;4.90;;
13061;SDS011;6597;52.218;9.882;2023-05-14T07:22:35;9.05;;;5.63;;
13061;SDS011;6597;52.218;9.882;2023-05-14T07:25:02;8.85;;;4.78;;
13061;SDS011;6597;52.218;9.882;2023-05-14T07:27:29;9.10;;;5.32;;
13061;SDS011;6597;52.218;9.882;2023-05-14T07:29:55;14.02;;;5.82;;
13061;SDS011;6597;52.218;9.882;2023-05-14T07:32:22;11.30;;;5.38;;
13061;SDS011;6597;52.218;9.882;2023-05-14T07:34:49;11.50;;;5.15;;
13061;SDS011;6597;52.218;9.882;2023-05-14T07:37:17;9.43;;;5.95;;
13061;SDS011;6597;52.218;9.882;2023-05-14T07:39:44;9.48;;;5.25;;
13061;SDS011;6597;52.218;9.882;2023-05-14T07:42:10;10.18;;;6.10;;
13061;SDS011;6597;52.218;9.882;2023-05-14T07:44:37;10.90;;;6.32;;
13061;SDS011;6597;52.218;9.882;2023-05-14T07:47:03;11.05;;;5.78;;
13061;SDS011;6597;52.218;9.882;2023-05-14T07:49:31;9.93;;;5.22;;
13061;SDS011;6597;52.218;9.882;2023-05-14T07:51:58;10.77;;;5.93;;
13061;SDS011;6597;52.218;9.882;2023-05-14T07:54:25;9.60;;;5.47;;
13061;SDS011;6597;52.218;9.882;2023-05-14T07:56:52;9.10;;;4.63;;
13061;SDS011;6597;52.218;9.882;2023-05-14T07:59:18;8.00;;;4.65;;
13061;SDS011;6597;52.218;9.882;2023-05-14T08:01:45;7.85;;;5.10;;
13061;SDS011;6597;52.218;9.882;2023-05-14T08:04:12;7.10;;;5.38;;
13061;SDS011;6597;52.218;9.882;2023-05-14T08:06:40;12.32;;;5.85;;
13061;SDS011;6597;52.218;9.882;2023-05-14T08:09:06;11.35;;;5.47;;
13061;SDS011;6597;52.218;9.882;2023-05-14T08:11:35;6.28;;;4.95;;
13061;SDS011;6597;52.218;9.882;2023-05-14T08:14:01;10.07;;;5.35;;
13061;SDS011;6597;52.218;9.882;2023-05-14T08:16:28;14.15;;;6.15;;
13061;SDS011;6597;52.218;9.882;2023-05-14T08:18:54;16.10;;;6.32;;
13061;SDS011;6597;52.218;9.882;2023-05-14T08:21:21;12.80;;;5.18;;
13061;SDS011;6597;52.218;9.882;2023-05-14T08:23:47;8.55;;;5.13;;
13061;SDS011;6597;52.218;9.882;2023-05-14T08:26:14;9.00;;;5.50;;
13061;SDS011;6597;52.218;9.882;2023-05-14T08:28:42;9.77;;;5.45;;
13061;SDS011;6597;52.218;9.882;2023-05-14T08:31:08;7.97;;;4.75;;
13061;SDS011;6597;52.218;9.882;2023-05-14T08:33:35;10.52;;;4.70;;
13061;SDS011;6597;52.218;9.882;2023-05-14T08:36:01;8.70;;;4.95;;
13061;SDS011;6597;52.218;9.882;2023-05-14T08:38:29;7.78;;;4.95;;
13061;SDS011;6597;52.218;9.882;2023-05-14T08:40:55;10.90;;;4.55;;
13061;SDS011;6597;52.218;9.882;2023-05-14T08:43:25;8.75;;;4.40;;
13061;SDS011;6597;52.218;9.882;2023-05-14T08:45:57;9.48;;;4.18;;
13061;SDS011;6597;52.218;9.882;2023-05-14T08:48:27;8.90;;;4.57;;
13061;SDS011;6597;52.218;9.882;2023-05-14T08:50:56;6.25;;;3.47;;
13061;SDS011;6597;52.218;9.882;2023-05-14T08:53:24;5.65;;;3.55;;
13061;SDS011;6597;52.218;9.882;2023-05-14T08:55:51;5.93;;;3.90;;
13061;SDS011;6597;52.218;9.882;2023-05-14T08:58:19;6.88;;;3.60;;
13061;SDS011;6597;52.218;9.882;2023-05-14T09:00:45;4.78;;;3.40;;
13061;SDS011;6597;52.218;9.882;2023-05-14T09:03:14;5.30;;;3.85;;
13061;SDS011;6597;52.218;9.882;2023-05-14T09:05:40;5.45;;;3.70;;
13061;SDS011;6597;52.218;9.882;2023-05-14T09:08:07;6.55;;;4.35;;
13061;SDS011;6597;52.218;9.882;2023-05-14T09:10:34;7.80;;;4.00;;
13061;SDS011;6597;52.218;9.882;2023-05-14T09:13:00;6.80;;;3.95;;
13061;SDS011;6597;52.218;9.882;2023-05-14T09:15:27;9.23;;;4.10;;
13061;SDS011;6597;52.218;9.882;2023-05-14T09:17:54;5.90;;;4.07;;
13061;SDS011;6597;52.218;9.882;2023-05-14T09:20:23;6.85;;;3.67;;
13061;SDS011;6597;52.218;9.882;2023-05-14T09:22:51;8.40;;;3.75;;
13061;SDS011;6597;52.218;9.882;2023-05-14T09:25:18;5.88;;;3.58;;
13061;SDS011;6597;52.218;9.882;2023-05-14T09:27:44;5.43;;;3.38;;
13061;SDS011;6597;52.218;9.882;2023-05-14T09:30:14;7.70;;;3.78;;
13061;SDS011;6597;52.218;9.882;2023-05-14T09:32:41;4.47;;;3.15;;
13061;SDS011;6597;52.218;9.882;2023-05-14T09:35:10;7.07;;;3.63;;
13061;SDS011;6597;52.218;9.882;2023-05-14T09:37:41;4.57;;;3.13;;
13061;SDS011;6597;52.218;9.882;2023-05-14T09:40:08;6.03;;;3.38;;
13061;SDS011;6597;52.218;9.882;2023-05-14T09:42:35;4.85;;;3.67;;
13061;SDS011;6597;52.218;9.882;2023-05-14T09:45:02;5.03;;;3.28;;
13061;SDS011;6597;52.218;9.882;2023-05-14T09:47:29;5.03;;;3.65;;
13061;SDS011;6597;52.218;9.882;2023-05-14T09:49:56;6.28;;;3.55;;
13061;SDS011;6597;52.218;9.882;2023-05-14T09:52:23;4.65;;;3.60;;
13061;SDS011;6597;52.218;9.882;2023-05-14T09:54:52;8.10;;;3.65;;
13061;SDS011;6597;52.218;9.882;2023-05-14T09:57:18;4.50;;;2.85;;
13061;SDS011;6597;52.218;9.882;2023-05-14T09:59:46;10.73;;;3.78;;
13061;SDS011;6597;52.218;9.882;2023-05-14T10:02:15;5.53;;;3.85;;
13061;SDS011;6597;52.218;9.882;2023-05-14T10:04:46;8.23;;;3.40;;
13061;SDS011;6597;52.218;9.882;2023-05-14T10:07:13;5.50;;;3.53;;
13061;SDS011;6597;52.218;9.882;2023-05-14T10:09:42;8.77;;;4.00;;
13061;SDS011;6597;52.218;9.882;2023-05-14T10:12:12;10.15;;;3.90;;
13061;SDS011;6597;52.218;9.882;2023-05-14T10:14:42;10.45;;;3.72;;
13061;SDS011;6597;52.218;9.882;2023-05-14T10:17:13;4.55;;;3.30;;
13061;SDS011;6597;52.218;9.882;2023-05-14T10:19:44;5.50;;;3.65;;
13061;SDS011;6597;52.218;9.882;2023-05-14T10:22:18;7.47;;;3.97;;
13061;SDS011;6597;52.218;9.882;2023-05-14T10:24:48;6.00;;;3.85;;
13061;SDS011;6597;52.218;9.882;2023-05-14T10:27:18;6.50;;;3.63;;
13061;SDS011;6597;52.218;9.882;2023-05-14T10:29:49;5.43;;;3.63;;
13061;SDS011;6597;52.218;9.882;2023-05-14T10:32:19;5.70;;;3.60;;
13061;SDS011;6597;52.218;9.882;2023-05-14T10:34:46;6.20;;;3.85;;
13061;SDS011;6597;52.218;9.882;2023-05-14T10:37:13;6.15;;;3.65;;
13061;SDS011;6597;52.218;9.882;2023-05-14T10:39:42;5.78;;;3.65;;
13061;SDS011;6597;52.218;9.882;2023-05-14T10:42:10;4.95;;;3.58;;
13061;SDS011;6597;52.218;9.882;2023-05-14T10:44:41;5.38;;;3.08;;
13061;SDS011;6597;52.218;9.882;2023-05-14T10:47:13;4.68;;;3.42;;
13061;SDS011;6597;52.218;9.882;2023-05-14T10:49:40;5.60;;;3.28;;
13061;SDS011;6597;52.218;9.882;2023-05-14T10:52:07;5.38;;;3.35;;
13061;SDS011;6597;52.218;9.882;2023-05-14T10:54:34;5.85;;;3.33;;
13061;SDS011;6597;52.218;9.882;2023-05-14T10:57:01;4.43;;;3.17;;
13061;SDS011;6597;52.218;9.882;2023-05-14T10:59:28;5.15;;;3.53;;
13061;SDS011;6597;52.218;9.882;2023-05-14T11:01:56;4.88;;;3.35;;
13061;SDS011;6597;52.218;9.882;2023-05-14T11:04:23;5.88;;;3.28;;
13061;SDS011;6597;52.218;9.882;2023-05-14T11:06:50;5.90;;;3.88;;
13061;SDS011;6597;52.218;9.882;2023-05-14T11:09:18;4.28;;;3.28;;
13061;SDS011;6597;52.218;9.882;2023-05-14T11:11:46;6.55;;;3.78;;
13061;SDS011;6597;52.218;9.882;2023-05-14T11:14:13;5.85;;;3.65;;
13061;SDS011;6597;52.218;9.882;2023-05-14T11:16:39;6.07;;;3.50;;
13061;SDS011;6597;52.218;9.882;2023-05-14T11:19:07;8.38;;;3.70;;
13061;SDS011;6597;52.218;9.882;2023-05-14T11:21:34;5.75;;;3.38;;
13061;SDS011;6597;52.218;9.882;2023-05-14T11:24:00;5.03;;;3.63;;
13061;SDS011;6597;52.218;9.882;2023-05-14T11:26:30;6.43;;;3.80;;
13061;SDS011;6597;52.218;9.882;2023-05-14T11:28:56;5.88;;;3.80;;
13061;SDS011;6597;52.218;9.882;2023-05-14T11:31:24;7.43;;;4.10;;
13061;SDS011;6597;52.218;9.882;2023-05-14T11:33:50;7.28;;;3.63;;
13061;SDS011;6597;52.218;9.882;2023-05-14T11:36:18;5.65;;;3.22;;
13061;SDS011;6597;52.218;9.882;2023-05-14T11:38:45;5.35;;;3.50;;
13061;SDS011;6597;52.218;9.882;2023-05-14T11:41:14;5.05;;;3.33;;
13061;SDS011;6597;52.218;9.882;2023-05-14T11:43:41;5.57;;;3.40;;
13061;SDS011;6597;52.218;9.882;2023-05-14T11:46:09;3.58;;;2.90;;
13061;SDS011;6597;52.218;9.882;2023-05-14T11:48:42;4.45;;;3.17;;
13061;SDS011;6597;52.218;9.882;2023-05-14T11:51:09;5.22;;;3.15;;
13061;SDS011;6597;52.218;9.882;2023-05-14T11:53:36;3.45;;;2.85;;
13061;SDS011;6597;52.218;9.882;2023-05-14T11:56:03;5.47;;;3.67;;
13061;SDS011;6597;52.218;9.882;2023-05-14T11:58:30;4.35;;;3.22;;
13061;SDS011;6597;52.218;9.882;2023-05-14T12:00:57;7.38;;;3.72;;
13061;SDS011;6597;52.218;9.882;2023-05-14T12:03:24;6.50;;;3.60;;
13061;SDS011;6597;52.218;9.882;2023-05-14T12:05:54;5.47;;;3.67;;
13061;SDS011;6597;52.218;9.882;2023-05-14T12:08:21;9.63;;;3.97;;
13061;SDS011;6597;52.218;9.882;2023-05-14T12:10:52;5.95;;;3.35;;
13061;SDS011;6597;52.218;9.882;2023-05-14T12:13:19;8.90;;;3.40;;
13061;SDS011;6597;52.218;9.882;2023-05-14T12:15:46;4.63;;;3.10;;
13061;SDS011;6597;52.218;9.882;2023-05-14T12:18:18;5.57;;;2.90;;
13061;SDS011;6597;52.218;9.882;2023-05-14T12:20:45;4.82;;;3.08;;
13061;SDS011;6597;52.218;9.882;2023-05-14T12:23:12;5.38;;;3.58;;
13061;SDS011;6597;52.218;9.882;2023-05-14T12:25:39;6.50;;;2.80;;
13061;SDS011;6597;52.218;9.882;2023-05-14T12:28:13;4.55;;;3.30;;
13061;SDS011;6597;52.218;9.882;2023-05-14T12:30:40;4.57;;;3.10;;
13061;SDS011;6597;52.218;9.882;2023-05-14T12:33:07;5.30;;;3.20;;
13061;SDS011;6597;52.218;9.882;2023-05-14T12:35:33;3.55;;;2.78;;
13061;SDS011;6597;52.218;9.882;2023-05-14T12:38:00;4.13;;;2.70;;
13061;SDS011;6597;52.218;9.882;2023-05-14T12:40:27;5.28;;;3.28;;
13061;SDS011;6597;52.218;9.882;2023-05-14T12:42:53;4.75;;;2.78;;
13061;SDS011;6597;52.218;9.882;2023-05-14T12:45:21;4.57;;;3.05;;
13061;SDS011;6597;52.218;9.882;2023-05-14T12:47:48;4.82;;;2.97;;
13061;SDS011;6597;52.218;9.882;2023-05-14T12:50:15;4.03;;;2.85;;
13061;SDS011;6597;52.218;9.882;2023-05-14T12:52:41;3.58;;;2.70;;
13061;SDS011;6597;52.218;9.882;2023-05-14T12:55:08;4.47;;;2.80;;
13061;SDS011;6597;52.218;9.882;2023-05-14T12:57:35;5.70;;;3.40;;
13061;SDS011;6597;52.218;9.882;2023-05-14T13:00:03;4.90;;;3.08;;
13061;SDS011;6597;52.218;9.882;2023-05-14T13:02:33;6.93;;;3.17;;
13061;SDS011;6597;52.218;9.882;2023-05-14T13:05:00;6.78;;;3.45;;
13061;SDS011;6597;52.218;9.882;2023-05-14T13:07:28;6.68;;;3.08;;
13061;SDS011;6597;52.218;9.882;2023-05-14T13:09:55;5.90;;;3.72;;
13061;SDS011;6597;52.218;9.882;2023-05-14T13:12:22;5.35;;;3.45;;
13061;SDS011;6597;52.218;9.882;2023-05-14T13:14:49;3.95;;;3.33;;
13061;SDS011;6597;52.218;9.882;2023-05-14T13:17:15;3.97;;;2.75;;
13061;SDS011;6597;52.218;9.882;2023-05-14T13:19:43;3.00;;;2.65;;
13061;SDS011;6597;52.218;9.882;2023-05-14T13:22:10;4.63;;;3.42;;
13061;SDS011;6597;52.218;9.882;2023-05-14T13:24:36;5.60;;;3.47;;
13061;SDS011;6597;52.218;9.882;2023-05-14T13:27:03;5.45;;;3.13;;
13061;SDS011;6597;52.218;9.882;2023-05-14T13:29:30;5.63;;;3.65;;
13061;SDS011;6597;52.218;9.882;2023-05-14T13:31:56;7.13;;;3.42;;
13061;SDS011;6597;52.218;9.882;2023-05-14T13:34:23;5.30;;;3.45;;
13061;SDS011;6597;52.218;9.882;2023-05-14T13:36:51;6.60;;;3.53;;
13061;SDS011;6597;52.218;9.882;2023-05-14T13:39:17;5.13;;;3.67;;
13061;SDS011;6597;52.218;9.882;2023-05-14T13:41:46;6.13;;;3.22;;
13061;SDS011;6597;52.218;9.882;2023-05-14T13:44:14;5.20;;;3.28;;
13061;SDS011;6597;52.218;9.882;2023-05-14T13:46:41;6.53;;;3.90;;
13061;SDS011;6597;52.218;9.882;2023-05-14T13:49:08;5.55;;;3.28;;
13061;SDS011;6597;52.218;9.882;2023-05-14T13:51:35;4.57;;;3.30;;
13061;SDS011;6597;52.218;9.882;2023-05-14T13:54:03;4.18;;;2.70;;
13061;SDS011;6597;52.218;9.882;2023-05-14T13:56:29;4.53;;;2.72;;
13061;SDS011;6597;52.218;9.882;2023-05-14T13:58:56;4.68;;;2.95;;
13061;SDS011;6597;52.218;9.882;2023-05-14T14:01:22;7.85;;;2.78;;
13061;SDS011;6597;52.218;9.882;2023-05-14T14:03:49;8.55;;;2.70;;
13061;SDS011;6597;52.218;9.882;2023-05-14T14:06:16;5.00;;;3.15;;
13061;SDS011;6597;52.218;9.882;2023-05-14T14:08:43;8.35;;;3.42;;
13061;SDS011;6597;52.218;9.882;2023-05-14T14:11:11;19.50;;;3.33;;
13061;SDS011;6597;52.218;9.882;2023-05-14T14:13:38;7.07;;;3.90;;
13061;SDS011;6597;52.218;9.882;2023-05-14T14:16:05;7.50;;;3.70;;
13061;SDS011;6597;52.218;9.882;2023-05-14T14:18:32;7.20;;;2.95;;
13061;SDS011;6597;52.218;9.882;2023-05-14T14:20:58;4.75;;;2.20;;
13061;SDS011;6597;52.218;9.882;2023-05-14T14:23:25;9.38;;;3.15;;
13061;SDS011;6597;52.218;9.882;2023-05-14T14:25:52;3.92;;;2.58;;
13061;SDS011;6597;52.218;9.882;2023-05-14T14:28:20;5.43;;;2.53;;
13061;SDS011;6597;52.218;9.882;2023-05-14T14:30:46;9.77;;;3.13;;
13061;SDS011;6597;52.218;9.882;2023-05-14T14:33:13;5.28;;;2.65;;
13061;SDS011;6597;52.218;9.882;2023-05-14T14:35:40;5.47;;;2.65;;
13061;SDS011;6597;52.218;9.882;2023-05-14T14:38:06;4.88;;;2.80;;
13061;SDS011;6597;52.218;9.882;2023-05-14T14:40:33;4.35;;;2.65;;
13061;SDS011;6597;52.218;9.882;2023-05-14T14:42:59;4.82;;;2.90;;
13061;SDS011;6597;52.218;9.882;2023-05-14T14:45:28;11.63;;;3.63;;
13061;SDS011;6597;52.218;9.882;2023-05-14T14:50:52;4.55;;;3.22;;
13061;SDS011;6597;52.218;9.882;2023-05-14T14:53:20;5.97;;;3.72;;
13061;SDS011;6597;52.218;9.882;2023-05-14T14:55:47;5.38;;;3.47;;
13061;SDS011;6597;52.218;9.882;2023-05-14T14:58:14;4.18;;;2.67;;
13061;SDS011;6597;52.218;9.882;2023-05-14T15:00:42;5.05;;;3.35;;